createdAt,value
2022-11-01T00:02:11.187Z,95109.09
2022-11-01T00:04:38.502Z,95109.91
2022-11-01T00:07:06.583Z,95102.69
2022-11-01T00:09:33.876Z,95093.03
2022-11-01T00:12:01.101Z,95097.06
2022-11-01T00:14:28.241Z,95090.91
2022-11-01T00:16:56.086Z,95089.00
2022-11-01T00:19:23.281Z,95098.38
2022-11-01T00:21:50.593Z,95102.13
2022-11-01T00:24:17.776Z,95082.28
2022-11-01T00:26:44.999Z,95096.75
2022-11-01T00:29:13.299Z,95096.75
2022-11-01T00:31:40.803Z,95097.56
2022-11-01T00:34:08.126Z,95094.88
2022-11-01T00:36:36.400Z,95089.25
2022-11-01T00:39:04.950Z,95082.03
2022-11-01T00:41:32.156Z,95076.13
2022-11-01T00:43:59.549Z,95086.03
2022-11-01T00:46:26.806Z,95078.28
2022-11-01T00:48:54.122Z,95072.09
2022-11-01T00:51:21.281Z,95076.66
2022-11-01T00:53:48.601Z,95074.25
2022-11-01T00:56:15.966Z,95074.25
2022-11-01T00:58:43.546Z,95069.16
2022-11-01T01:01:11.014Z,95078.25
2022-11-01T01:03:38.527Z,95078.00
2022-11-01T01:06:06.155Z,95079.31
2022-11-01T01:08:33.236Z,95081.72
2022-11-01T01:11:00.491Z,95074.00
2022-11-01T01:13:27.694Z,95072.09
2022-11-01T01:15:54.731Z,95082.00
2022-11-01T01:18:22.289Z,95077.44
2022-11-01T01:20:49.430Z,95074.00
2022-11-01T01:23:18.697Z,95071.81
2022-11-01T01:25:48.219Z,95087.06
2022-11-01T01:28:15.524Z,95067.28
2022-11-01T01:30:43.686Z,95076.34
2022-11-01T01:35:43.335Z,95068.31
2022-11-01T01:38:12.777Z,95050.97
2022-11-01T01:40:40.194Z,95058.66
2022-11-01T01:43:12.612Z,95067.53
2022-11-01T01:45:42.079Z,95061.88
2022-11-01T01:48:19.168Z,95056.25
2022-11-01T01:50:55.801Z,95061.88
2022-11-01T01:53:34.213Z,95049.56
2022-11-01T01:56:08.279Z,95050.59
2022-11-01T01:58:47.381Z,95054.09
2022-11-01T02:01:14.950Z,95057.59
2022-11-01T02:03:42.958Z,95041.50
2022-11-01T02:06:17.848Z,95048.75
2022-11-01T02:08:58.608Z,95050.59
2022-11-01T02:11:26.009Z,95046.34
2022-11-01T02:13:53.491Z,95039.91
2022-11-01T02:16:42.479Z,95053.28
2022-11-01T02:19:12.316Z,95042.56
2022-11-01T02:22:07.989Z,95036.41
2022-11-01T02:24:58.079Z,95041.53
2022-11-01T02:27:40.382Z,95045.00
2022-11-01T02:30:19.014Z,95039.63
2022-11-01T02:33:12.645Z,95039.13
2022-11-01T02:35:54.619Z,95032.44
2022-11-01T02:38:40.193Z,95036.44
2022-11-01T02:41:19.404Z,95036.19
2022-11-01T02:44:03.763Z,95044.75
2022-11-01T02:46:54.714Z,95043.69
2022-11-01T02:49:23.791Z,95035.66
2022-11-01T02:51:52.849Z,95040.19
2022-11-01T02:54:33.221Z,95038.06
2022-11-01T02:57:31.158Z,95039.38
2022-11-01T03:00:08.683Z,95042.34
2022-11-01T03:02:44.613Z,95040.50
2022-11-01T03:05:25.688Z,95044.25
2022-11-01T03:08:00.221Z,95034.88
2022-11-01T03:10:38.574Z,95045.03
2022-11-01T03:13:32.386Z,95041.56
2022-11-01T03:16:21.199Z,95045.31
2022-11-01T03:19:21.946Z,95046.69
2022-11-01T03:22:21.214Z,95044.03
2022-11-01T03:25:40.909Z,95036.81
2022-11-01T03:28:25.734Z,95048.03
2022-11-01T03:31:09.167Z,95044.28
2022-11-01T03:33:48.631Z,95049.91
2022-11-01T03:36:20.105Z,95050.44
2022-11-01T03:39:00.041Z,95041.34
2022-11-01T03:41:31.573Z,95040.53
2022-11-01T03:44:00.250Z,95045.59
2022-11-01T03:46:27.367Z,95036.25
2022-11-01T03:48:54.429Z,95042.09
2022-11-01T03:51:21.655Z,95046.38
2022-11-01T03:53:48.757Z,95047.47
2022-11-01T03:56:16.109Z,95045.59
2022-11-01T03:58:46.894Z,95047.47
2022-11-01T04:01:17.599Z,95030.88
2022-11-01T04:03:45.707Z,95043.47
2022-11-01T04:06:12.887Z,95043.19
2022-11-01T04:08:41.244Z,95043.72
2022-11-01T04:11:08.507Z,95037.56
2022-11-01T04:13:38.430Z,95037.28
2022-11-01T04:16:24.473Z,95036.75
2022-11-01T04:19:09.559Z,95040.50
2022-11-01T04:21:37.029Z,95041.59
2022-11-01T04:24:04.346Z,95040.78
2022-11-01T04:26:31.605Z,95044.53
2022-11-01T04:28:58.828Z,95036.00
2022-11-01T04:31:33.039Z,95041.59
2022-11-01T04:34:01.903Z,95039.41
2022-11-01T04:36:29.413Z,95031.41
2022-11-01T04:38:57.955Z,95042.09
2022-11-01T04:41:27.840Z,95039.41
2022-11-01T04:43:57.876Z,95030.31
2022-11-01T04:46:25.624Z,95046.38
2022-11-01T04:48:52.806Z,95037.56
2022-11-01T04:51:19.898Z,95036.25
2022-11-01T04:53:47.263Z,95032.75
2022-11-01T04:56:14.243Z,95027.94
2022-11-01T04:58:46.239Z,95036.47
2022-11-01T05:01:15.389Z,95028.44
2022-11-01T05:03:43.396Z,95036.75
2022-11-01T05:06:10.785Z,95036.47
2022-11-01T05:08:37.963Z,95019.91
2022-11-01T05:11:05.409Z,95034.88
2022-11-01T05:13:32.860Z,95044.53
2022-11-01T05:16:18.904Z,95033.03
2022-11-01T05:18:48.440Z,95041.03
2022-11-01T05:21:15.639Z,95039.16
2022-11-01T05:23:42.683Z,95041.31
2022-11-01T05:26:10.404Z,95041.84
2022-11-01T05:28:37.592Z,95018.53
2022-11-01T05:31:04.901Z,95024.16
2022-11-01T05:33:32.129Z,95044.53
2022-11-01T05:36:01.965Z,95041.03
2022-11-01T05:38:29.572Z,95030.34
2022-11-01T05:40:56.735Z,95040.75
2022-11-01T05:43:24.006Z,95034.88
2022-11-01T05:45:51.335Z,95038.91
2022-11-01T05:48:18.682Z,95038.38
2022-11-01T05:50:48.095Z,95052.56
2022-11-01T05:53:15.868Z,95050.16
2022-11-01T05:55:42.848Z,95057.41
2022-11-01T05:58:10.295Z,95049.34
2022-11-01T06:00:37.620Z,95049.34
2022-11-01T06:03:05.886Z,95040.81
2022-11-01T06:05:34.476Z,95055.50
2022-11-01T06:08:03.137Z,95057.13
2022-11-01T06:10:31.958Z,95058.19
2022-11-01T06:13:00.186Z,95059.81
2022-11-01T06:15:27.517Z,95061.69
2022-11-01T06:18:01.127Z,95063.84
2022-11-01T06:20:32.447Z,95046.47
2022-11-01T06:23:01.428Z,95066.22
2022-11-01T06:25:29.126Z,95068.16
2022-11-01T06:27:56.371Z,95076.16
2022-11-01T06:30:23.868Z,95077.28
2022-11-01T06:32:51.823Z,95075.88
2022-11-01T06:35:27.535Z,95086.59
2022-11-01T06:38:11.549Z,95092.78
2022-11-01T06:40:38.691Z,95089.28
2022-11-01T06:43:06.617Z,95093.59
2022-11-01T06:45:36.270Z,95088.50
2022-11-01T06:48:04.335Z,95105.91
2022-11-01T06:50:35.124Z,95108.06
2022-11-01T06:53:02.798Z,95103.22
2022-11-01T06:55:30.859Z,95097.09
2022-11-01T06:58:05.861Z,95104.59
2022-11-01T07:00:33.463Z,95102.69
2022-11-01T07:03:10.970Z,95111.28
2022-11-01T07:05:39.199Z,95118.25
2022-11-01T07:08:13.370Z,95105.94
2022-11-01T07:10:43.380Z,95122.50
2022-11-01T07:13:13.065Z,95105.13
2022-11-01T07:15:41.344Z,95124.41
2022-11-01T07:18:09.125Z,95108.09
2022-11-01T07:20:44.046Z,95117.47
2022-11-01T07:23:16.621Z,95138.88
2022-11-01T07:26:00.640Z,95134.09
2022-11-01T07:28:37.303Z,95133.00
2022-11-01T07:31:07.108Z,95137.88
2022-11-01T07:33:37.257Z,95145.06
2022-11-01T07:36:08.152Z,95131.69
2022-11-01T07:38:40.805Z,95149.09
2022-11-01T07:41:08.476Z,95133.84
2022-11-01T07:43:35.974Z,95155.78
2022-11-01T07:46:07.353Z,95151.53
2022-11-01T07:48:36.697Z,95142.72
2022-11-01T07:51:06.065Z,95150.72
2022-11-01T07:53:34.027Z,95167.88
2022-11-01T07:56:02.523Z,95173.50
2022-11-01T07:58:29.808Z,95166.28
2022-11-01T08:00:57.447Z,95164.16
2022-11-01T08:03:24.863Z,95166.56
2022-11-01T08:05:52.261Z,95171.38
2022-11-01T08:08:19.571Z,95174.03
2022-11-01T08:10:47.051Z,95164.41
2022-11-01T08:13:25.574Z,95165.75
2022-11-01T08:15:54.020Z,95187.72
2022-11-01T08:18:24.422Z,95183.44
2022-11-01T08:20:52.375Z,95192.56
2022-11-01T08:23:20.016Z,95185.59
2022-11-01T08:25:47.557Z,95181.34
2022-11-01T08:28:17.941Z,95178.66
2022-11-01T08:30:47.642Z,95185.09
2022-11-01T08:33:15.342Z,95189.63
2022-11-01T08:35:49.737Z,95182.66
2022-11-01T08:38:18.467Z,95190.72
2022-11-01T08:40:45.818Z,95186.97
2022-11-01T08:43:13.770Z,95182.13
2022-11-01T08:45:42.752Z,95193.91
2022-11-01T08:48:10.746Z,95196.06
2022-11-01T08:50:38.481Z,95208.13
2022-11-01T08:53:12.522Z,95218.03
2022-11-01T08:55:40.534Z,95205.72
2022-11-01T08:58:09.583Z,95209.97
2022-11-01T09:00:37.180Z,95195.50
2022-11-01T09:03:08.652Z,95200.06
2022-11-01T09:05:38.520Z,95189.63
2022-11-01T09:08:06.320Z,95196.31
2022-11-01T09:10:35.835Z,95197.13
2022-11-01T09:13:03.869Z,95211.34
2022-11-01T09:15:31.702Z,95210.53
2022-11-01T09:17:58.997Z,95207.06
2022-11-01T09:20:28.356Z,95203.28
2022-11-01T09:22:55.802Z,95193.91
2022-11-01T09:25:23.266Z,95193.91
2022-11-01T09:27:50.879Z,95200.88
2022-11-01T09:30:19.611Z,95200.34
2022-11-01T09:32:47.624Z,95199.81
2022-11-01T09:40:39.063Z,95213.75
2022-11-01T09:43:10.042Z,95227.72
2022-11-01T09:45:37.991Z,95229.84
2022-11-01T09:48:07.182Z,95237.88
2022-11-01T09:50:38.267Z,95230.91
2022-11-01T09:53:17.012Z,95231.44
2022-11-01T09:55:59.805Z,95226.91
2022-11-01T09:59:02.802Z,95237.88
2022-11-01T10:01:57.156Z,95238.44
2022-11-01T10:05:06.371Z,95242.97
2022-11-01T10:08:01.779Z,95248.34
2022-11-01T10:10:58.736Z,95243.25
2022-11-01T10:14:00.026Z,95244.31
2022-11-01T10:17:29.089Z,95238.97
2022-11-01T10:19:56.915Z,95222.34
2022-11-01T10:22:36.735Z,95229.31
2022-11-01T10:25:28.955Z,95225.03
2022-11-01T10:28:28.452Z,95230.91
2022-11-01T10:31:05.521Z,95232.25
2022-11-01T10:34:22.428Z,95226.63
2022-11-01T10:36:51.429Z,95234.16
2022-11-01T10:39:54.641Z,95244.06
2022-11-01T10:42:21.105Z,95244.31
2022-11-01T10:45:04.302Z,95245.66
2022-11-01T10:47:31.901Z,95245.41
2022-11-01T10:50:18.065Z,95241.63
2022-11-01T10:53:11.732Z,95251.00
2022-11-01T10:55:57.924Z,95240.28
2022-11-01T10:58:30.892Z,95248.09
2022-11-01T11:00:58.391Z,95251.28
2022-11-01T11:03:31.135Z,95244.84
2022-11-01T11:06:07.042Z,95244.06
2022-11-01T11:08:36.423Z,95234.41
2022-11-01T11:11:08.866Z,95237.34
2022-11-01T11:13:36.487Z,95228.50
2022-11-01T11:16:05.530Z,95230.91
2022-11-01T11:18:35.385Z,95243.25
2022-11-01T11:21:08.640Z,95229.03
2022-11-01T11:23:44.998Z,95238.69
2022-11-01T11:26:19.117Z,95238.13
2022-11-01T11:28:53.336Z,95241.34
2022-11-01T11:31:24.680Z,95235.72
2022-11-01T11:34:03.388Z,95241.34
2022-11-01T11:36:36.545Z,95230.09
2022-11-01T11:39:04.942Z,95238.13
2022-11-01T11:41:39.210Z,95242.16
2022-11-01T11:44:35.457Z,95235.47
2022-11-01T11:47:03.209Z,95237.34
2022-11-01T11:49:30.481Z,95242.16
2022-11-01T11:51:59.910Z,95229.84
2022-11-01T11:54:32.077Z,95233.84
2022-11-01T11:57:16.795Z,95240.28
2022-11-01T12:02:22.773Z,95226.06
2022-11-01T12:05:05.645Z,95227.69
2022-11-01T12:07:39.757Z,95226.88
2022-11-01T12:10:41.047Z,95216.69
2022-11-01T12:13:47.294Z,95209.72
2022-11-01T12:16:21.447Z,95211.09
2022-11-01T12:19:02.850Z,95205.97
2022-11-01T12:21:40.099Z,95210.81
2022-11-01T12:24:27.512Z,95200.38
2022-11-01T12:27:01.960Z,95209.47
2022-11-01T12:29:47.638Z,95211.09
2022-11-01T12:32:21.635Z,95209.97
2022-11-01T12:34:52.440Z,95202.50
2022-11-01T12:37:32.355Z,95197.13
2022-11-01T12:40:09.390Z,95199.00
2022-11-01T12:42:50.250Z,95200.88
2022-11-01T12:45:47.020Z,95193.38
2022-11-01T12:48:40.625Z,95203.03
2022-11-01T12:51:21.769Z,95202.75
2022-11-01T12:54:05.962Z,95208.91
2022-11-01T12:56:33.369Z,95209.72
2022-11-01T12:59:01.066Z,95197.13
2022-11-01T13:01:38.401Z,95205.97
2022-11-01T13:04:31.509Z,95204.38
2022-11-01T13:07:18.837Z,95207.31
2022-11-01T13:10:22.322Z,95206.22
2022-11-01T13:13:31.409Z,95207.59
2022-11-01T13:16:36.911Z,95213.75
2022-11-01T13:19:20.699Z,95204.88
2022-11-01T13:22:23.018Z,95220.97
2022-11-01T13:25:40.020Z,95222.06
2022-11-01T13:28:45.139Z,95226.88
2022-11-01T13:32:02.884Z,95227.94
2022-11-01T13:34:54.811Z,95224.72
2022-11-01T13:37:47.550Z,95228.47
2022-11-01T13:40:33.857Z,95230.88
2022-11-01T13:43:12.550Z,95228.19
2022-11-01T13:46:18.203Z,95233.84
2022-11-01T13:48:54.279Z,95238.66
2022-11-01T13:51:56.988Z,95238.91
2022-11-01T13:54:39.981Z,95240.53
2022-11-01T13:57:17.293Z,95245.63
2022-11-01T14:00:04.887Z,95235.72
2022-11-01T14:02:59.477Z,95238.66
2022-11-01T14:05:38.716Z,95233.84
2022-11-01T14:08:27.212Z,95247.22
2022-11-01T14:10:55.402Z,95245.38
2022-11-01T14:13:47.025Z,95250.72
2022-11-01T14:21:29.219Z,95260.66
2022-11-01T14:24:02.576Z,95253.69
2022-11-01T14:27:10.009Z,95266.28
2022-11-01T14:29:44.443Z,95262.25
2022-11-01T14:32:15.953Z,95263.06
2022-11-01T14:34:45.763Z,95261.97
2022-11-01T14:37:21.826Z,95252.31
2022-11-01T14:40:20.988Z,95261.97
2022-11-01T14:42:50.142Z,95263.59
2022-11-01T14:45:31.482Z,95265.72
2022-11-01T14:48:05.297Z,95268.41
2022-11-01T14:50:59.140Z,95275.66
2022-11-01T14:53:32.990Z,95270.56
2022-11-01T14:56:22.126Z,95268.97
2022-11-01T14:58:49.841Z,95263.59
2022-11-01T15:01:23.380Z,95271.09
2022-11-01T15:03:59.628Z,95277.53
2022-11-01T15:06:30.557Z,95281.56
2022-11-01T15:09:04.368Z,95284.25
2022-11-01T15:11:34.595Z,95270.31
2022-11-01T15:14:05.999Z,95279.41
2022-11-01T15:16:35.554Z,95294.13
2022-11-01T15:19:15.102Z,95292.53
2022-11-01T15:21:46.937Z,95295.75
2022-11-01T15:24:25.358Z,95296.81
2022-11-01T15:26:53.954Z,95301.41
2022-11-01T15:29:25.008Z,95297.38
2022-11-01T15:32:01.197Z,95304.88
2022-11-01T15:34:32.008Z,95290.94
2022-11-01T15:37:10.616Z,95302.19
2022-11-01T15:39:38.935Z,95297.66
2022-11-01T15:42:19.252Z,95312.13
2022-11-01T15:44:46.574Z,95303.53
2022-11-01T15:47:27.382Z,95314.81
2022-11-01T15:50:01.331Z,95323.91
2022-11-01T15:52:32.165Z,95329.00
2022-11-01T15:55:30.210Z,95326.59
2022-11-01T15:58:07.603Z,95325.25
2022-11-01T16:00:46.401Z,95326.06
2022-11-01T16:03:21.040Z,95324.97
2022-11-01T16:05:58.649Z,95327.66
2022-11-01T16:08:42.639Z,95324.19
2022-11-01T16:11:10.393Z,95318.03
2022-11-01T16:13:37.794Z,95330.34
2022-11-01T16:16:13.167Z,95344.03
2022-11-01T16:18:45.076Z,95335.16
2022-11-01T16:21:30.846Z,95345.09
2022-11-01T16:24:15.739Z,95338.94
2022-11-01T16:27:03.824Z,95329.56
2022-11-01T16:29:47.892Z,95348.06
2022-11-01T16:32:31.089Z,95353.66
2022-11-01T16:35:00.553Z,95350.75
2022-11-01T16:37:29.962Z,95366.81
2022-11-01T16:39:59.092Z,95371.38
2022-11-01T16:42:26.619Z,95379.41
2022-11-01T16:44:56.483Z,95363.63
2022-11-01T16:47:23.942Z,95382.91
2022-11-01T16:49:56.714Z,95382.91
2022-11-01T16:52:23.993Z,95383.16
2022-11-01T16:54:51.465Z,95383.69
2022-11-01T16:57:27.012Z,95384.53
2022-11-01T16:59:55.218Z,95366.00
2022-11-01T17:02:26.919Z,95365.47
2022-11-01T17:05:21.126Z,95381.31
2022-11-01T17:07:49.068Z,95389.34
2022-11-01T17:10:25.516Z,95374.31
2022-11-01T17:12:57.676Z,95386.66
2022-11-01T17:15:27.010Z,95375.41
2022-11-01T17:17:54.569Z,95381.03
2022-11-01T17:20:26.611Z,95388.78
2022-11-01T17:22:55.762Z,95390.13
2022-11-01T17:25:28.754Z,95381.56
2022-11-01T17:27:56.704Z,95380.47
2022-11-01T17:30:23.843Z,95384.50
2022-11-01T17:32:51.437Z,95385.03
2022-11-01T17:35:21.465Z,95372.44
2022-11-01T17:37:51.396Z,95367.63
2022-11-01T17:40:26.650Z,95382.38
2022-11-01T17:42:54.605Z,95385.84
2022-11-01T17:45:23.033Z,95369.25
2022-11-01T17:47:53.918Z,95371.38
2022-11-01T17:50:22.113Z,95379.69
2022-11-01T17:52:49.229Z,95375.13
2022-11-01T17:55:16.592Z,95381.03
2022-11-01T17:57:43.940Z,95381.03
2022-11-01T18:00:12.324Z,95373.53
2022-11-01T18:02:42.374Z,95382.38
2022-11-01T18:05:10.201Z,95374.59
2022-11-01T18:07:41.786Z,95369.50
2022-11-01T18:10:22.721Z,95382.09
2022-11-01T18:13:30.796Z,95397.63
2022-11-01T18:16:21.251Z,95400.59
2022-11-01T18:19:20.871Z,95386.63
2022-11-01T18:22:16.007Z,95372.44
2022-11-01T18:25:19.645Z,95378.09
2022-11-01T18:27:46.868Z,95376.19
2022-11-01T18:30:20.621Z,95370.03
2022-11-01T18:33:03.728Z,95378.88
2022-11-01T18:35:49.689Z,95378.88
2022-11-01T18:38:42.345Z,95377.25
2022-11-01T18:41:13.381Z,95380.75
2022-11-01T18:43:41.226Z,95378.88
2022-11-01T18:46:25.802Z,95386.13
2022-11-01T18:49:00.312Z,95371.91
2022-11-01T18:51:31.698Z,95399.25
2022-11-01T18:54:13.832Z,95394.16
2022-11-01T18:56:52.294Z,95394.16
2022-11-01T18:59:29.614Z,95400.31
2022-11-01T19:02:09.673Z,95392.28
2022-11-01T19:04:39.055Z,95396.84
2022-11-01T19:07:19.321Z,95382.34
2022-11-01T19:09:56.344Z,95374.59
2022-11-01T19:12:29.840Z,95395.78
2022-11-01T19:15:03.728Z,95392.28
2022-11-01T19:17:37.615Z,95393.09
2022-11-01T19:20:30.672Z,95396.84
2022-11-01T19:23:03.975Z,95396.31
2022-11-01T19:25:36.023Z,95389.88
2022-11-01T19:28:13.747Z,95392.28
2022-11-01T19:30:47.529Z,95400.31
2022-11-01T19:33:37.307Z,95410.50
2022-11-01T19:36:19.865Z,95403.56
2022-11-01T19:38:48.405Z,95403.28
2022-11-01T19:41:30.232Z,95402.44
2022-11-01T19:44:12.644Z,95400.88
2022-11-01T19:46:39.769Z,95395.75
2022-11-01T19:49:29.587Z,95401.94
2022-11-01T19:52:37.238Z,95395.47
2022-11-01T19:55:36.603Z,95399.78
2022-11-01T19:58:26.316Z,95397.91
2022-11-01T20:01:11.264Z,95403.28
2022-11-01T20:03:46.147Z,95404.06
2022-11-01T20:06:37.305Z,95406.19
2022-11-01T20:09:12.662Z,95398.72
2022-11-01T20:11:39.878Z,95411.28
2022-11-01T20:14:07.144Z,95418.28
2022-11-01T20:16:34.456Z,95418.28
2022-11-01T20:19:01.670Z,95418.53
2022-11-01T20:21:29.180Z,95401.91
2022-11-01T20:23:56.624Z,95417.19
2022-11-01T20:26:23.767Z,95414.78
2022-11-01T20:28:51.219Z,95419.09
2022-11-01T20:31:21.270Z,95418.81
2022-11-01T20:33:48.598Z,95426.56
2022-11-01T20:36:15.870Z,95420.41
2022-11-01T20:38:43.357Z,95430.34
2022-11-01T20:41:10.865Z,95433.81
2022-11-01T20:43:38.126Z,95422.28
2022-11-01T20:46:05.991Z,95425.00
2022-11-01T20:48:33.535Z,95428.75
2022-11-01T20:51:00.992Z,95425.00
2022-11-01T20:53:29.980Z,95432.22
2022-11-01T20:55:57.517Z,95432.22
2022-11-01T20:58:25.143Z,95431.41
2022-11-01T21:00:52.808Z,95433.56
2022-11-01T21:03:21.510Z,95426.84
2022-11-01T21:05:49.961Z,95440.25
2022-11-01T21:08:23.013Z,95434.91
2022-11-01T21:11:03.752Z,95439.72
2022-11-01T21:13:37.194Z,95421.22
2022-11-01T21:16:14.233Z,95428.19
2022-11-01T21:18:45.766Z,95423.34
2022-11-01T21:21:16.589Z,95439.72
2022-11-01T21:23:44.818Z,95432.47
2022-11-01T21:26:23.973Z,95432.47
2022-11-01T21:28:58.921Z,95434.34
2022-11-01T21:31:34.540Z,95439.97
2022-11-01T21:34:24.814Z,95446.41
2022-11-01T21:36:52.437Z,95443.72
2022-11-01T21:39:25.261Z,95442.13
2022-11-01T21:41:56.740Z,95441.59
2022-11-01T21:44:42.371Z,95445.06
2022-11-01T21:47:10.356Z,95444.81
2022-11-01T21:49:38.333Z,95450.97
2022-11-01T21:52:08.768Z,95450.19
2022-11-01T21:54:38.384Z,95444.81
2022-11-01T21:57:09.058Z,95446.41
2022-11-01T21:59:37.304Z,95445.63
2022-11-01T22:02:07.146Z,95427.38
2022-11-01T22:04:34.466Z,95441.31
2022-11-01T22:07:05.365Z,95437.56
2022-11-01T22:09:33.734Z,95441.03
2022-11-01T22:12:01.222Z,95444.81
2022-11-01T22:14:28.406Z,95447.50
2022-11-01T22:16:56.747Z,95442.94
2022-11-01T22:19:24.436Z,95434.63
2022-11-01T22:21:51.568Z,95441.31
2022-11-01T22:24:18.667Z,95434.88
2022-11-01T22:26:46.122Z,95430.59
2022-11-01T22:29:13.278Z,95429.78
2022-11-01T22:31:40.603Z,95435.16
2022-11-01T22:34:08.165Z,95427.38
2022-11-01T22:36:37.383Z,95430.59
2022-11-01T22:39:21.276Z,95434.34
2022-11-01T22:41:49.389Z,95438.91
2022-11-01T22:44:29.323Z,95438.09
2022-11-01T22:47:02.057Z,95430.59
2022-11-01T22:49:41.099Z,95433.00
2022-11-01T22:52:17.081Z,95440.25
2022-11-01T22:54:48.140Z,95429.53
2022-11-01T22:57:23.317Z,95431.38
2022-11-01T22:59:59.482Z,95429.53
2022-11-01T23:02:31.447Z,95430.59
2022-11-01T23:05:25.681Z,95434.59
2022-11-01T23:07:58.427Z,95423.06
2022-11-01T23:10:35.073Z,95429.25
2022-11-01T23:13:30.959Z,95427.38
2022-11-01T23:16:11.790Z,95431.94
2022-11-01T23:18:42.414Z,95431.38
2022-11-01T23:21:10.470Z,95427.63
2022-11-01T23:23:43.459Z,95431.94
2022-11-01T23:26:11.778Z,95421.72
2022-11-01T23:28:46.144Z,95440.25
2022-11-01T23:31:14.457Z,95439.16
2022-11-01T23:33:47.352Z,95435.69
2022-11-01T23:36:23.751Z,95442.91
2022-11-01T23:38:56.629Z,95436.75
2022-11-01T23:41:34.559Z,95437.81
2022-11-01T23:44:10.714Z,95423.34
2022-11-01T23:46:38.156Z,95434.06
2022-11-01T23:49:29.568Z,95430.84
2022-11-01T23:51:56.493Z,95415.53
2022-11-01T23:54:36.454Z,95435.13
2022-11-01T23:57:03.782Z,95438.63
2022-11-01T23:59:31.416Z,95430.31
